Time;durP1;ratioP1;P1;durP2;ratioP2;P2;SDS_P1;SDS_P2;PMS_P1;PMS_P2;Temp;Humidity;BMP_temperature;BMP_pressure;BME280_temperature;BME280_humidity;BME280_pressure;Samples;Min_cycle;Max_cycle;Signal;HPM_P1;HPM_P2
2022/12/10 00:01:47;;;;;;;139.50;43.55;;;;;;;-0.42;100.00;100973.06;5011434;28;20923;-72
2022/12/10 00:04:14;;;;;;;134.98;45.08;;;;;;;-0.40;100.00;100965.72;5015344;28;20131;-74
2022/12/10 00:06:40;;;;;;;145.18;44.80;;;;;;;-0.39;100.00;100967.41;5015179;28;20073;-71
2022/12/10 00:09:09;;;;;;;140.77;45.13;;;;;;;-0.42;100.00;100959.63;5013735;28;20053;-72
2022/12/10 00:11:34;;;;;;;154.52;48.35;;;;;;;-0.41;100.00;100954.09;5016328;28;20029;-74
2022/12/10 00:14:00;;;;;;;169.57;51.55;;;;;;;-0.43;100.00;100950.69;5016057;28;20444;-73
2022/12/10 00:16:27;;;;;;;207.18;53.95;;;;;;;-0.44;100.00;100948.09;5014675;28;20034;-71
2022/12/10 00:18:53;;;;;;;207.07;55.50;;;;;;;-0.46;100.00;100950.06;5011396;28;20406;-74
2022/12/10 00:21:25;;;;;;;198.88;54.90;;;;;;;-0.41;100.00;100955.94;5018697;28;20136;-73
2022/12/10 00:23:50;;;;;;;206.77;54.05;;;;;;;-0.41;100.00;100961.31;5015768;28;20041;-74
2022/12/10 00:26:25;;;;;;;215.00;55.20;;;;;;;-0.43;100.00;100966.81;5017004;28;20092;-71
2022/12/10 00:28:52;;;;;;;207.77;56.35;;;;;;;-0.39;100.00;100971.97;5016857;28;20037;-72
2022/12/10 00:31:20;;;;;;;224.38;56.95;;;;;;;-0.45;100.00;100973.31;5015205;28;20030;-73
2022/12/10 00:33:46;;;;;;;204.35;55.80;;;;;;;-0.37;100.00;100969.00;5020791;28;20448;-73
2022/12/10 00:36:15;;;;;;;213.55;55.83;;;;;;;-0.40;100.00;100971.09;5018860;28;20061;-74
2022/12/10 00:38:41;;;;;;;208.68;55.50;;;;;;;-0.42;100.00;100973.91;5020453;28;20033;-72
2022/12/10 00:41:07;;;;;;;174.77;55.95;;;;;;;-0.43;100.00;100965.94;5021012;28;20033;-74
2022/12/10 00:43:33;;;;;;;198.25;53.85;;;;;;;-0.38;100.00;100972.69;5017725;28;20056;-73
2022/12/10 00:45:58;;;;;;;196.55;54.22;;;;;;;-0.39;100.00;100972.78;5017170;28;20049;-74
2022/12/10 00:48:24;;;;;;;190.25;54.95;;;;;;;-0.43;100.00;100976.72;5022734;28;20478;-74
2022/12/10 00:51:02;;;;;;;177.55;53.70;;;;;;;-0.39;100.00;100982.72;5015222;28;20037;-71
2022/12/10 00:53:29;;;;;;;167.98;52.80;;;;;;;-0.34;100.00;100980.53;5022674;28;20395;-74
2022/12/10 00:55:55;;;;;;;175.75;52.13;;;;;;;-0.36;100.00;100977.94;5024017;28;20030;-74
2022/12/10 00:58:21;;;;;;;196.30;56.10;;;;;;;-0.44;100.00;100983.06;5024093;28;20034;-73
2022/12/10 01:00:47;;;;;;;205.65;56.72;;;;;;;-0.46;100.00;100974.28;5019577;28;20525;-72
2022/12/10 01:03:13;;;;;;;206.90;57.13;;;;;;;-0.52;100.00;100977.47;5017836;28;20105;-74
2022/12/10 01:05:38;;;;;;;260.58;53.47;;;;;;;-0.47;100.00;100980.66;5021840;28;20030;-73
2022/12/10 01:08:04;;;;;;;251.73;57.53;;;;;;;-0.50;100.00;100980.88;5028014;28;20097;-75
2022/12/10 01:10:29;;;;;;;232.35;55.35;;;;;;;-0.48;100.00;100976.25;5021260;28;20578;-73
2022/12/10 01:12:55;;;;;;;238.20;56.53;;;;;;;-0.49;100.00;100987.13;5019866;28;20030;-72
2022/12/10 01:15:20;;;;;;;199.90;53.65;;;;;;;-0.47;100.00;100988.72;5022845;28;20029;-73
2022/12/10 01:17:45;;;;;;;205.10;56.88;;;;;;;-0.49;100.00;100995.19;5023753;28;20404;-71
2022/12/10 01:20:12;;;;;;;180.25;57.05;;;;;;;-0.46;100.00;100987.75;5021851;28;20056;-73
2022/12/10 01:22:37;;;;;;;141.60;42.07;;;;;;;-0.46;100.00;100985.03;5016031;28;20103;-74
2022/12/10 01:25:03;;;;;;;185.88;54.55;;;;;;;-0.48;100.00;100984.31;5023237;28;20077;-73
2022/12/10 01:27:28;;;;;;;167.98;53.35;;;;;;;-0.50;100.00;100990.81;5026275;28;20500;-74
2022/12/10 01:29:53;;;;;;;151.18;51.60;;;;;;;-0.55;100.00;100984.94;5022060;28;20033;-72
2022/12/10 01:32:18;;;;;;;167.00;51.88;;;;;;;-0.49;100.00;100985.28;5020691;28;20467;-73
2022/12/10 01:34:44;;;;;;;160.60;52.75;;;;;;;-0.51;100.00;101000.69;5021672;28;20576;-73
2022/12/10 01:37:10;;;;;;;162.80;52.80;;;;;;;-0.54;100.00;100994.72;5024352;28;20032;-73
2022/12/10 01:39:35;;;;;;;148.23;49.43;;;;;;;-0.53;100.00;100999.97;5024897;28;20036;-74
2022/12/10 01:42:01;;;;;;;148.80;49.25;;;;;;;-0.58;100.00;101002.19;5024837;28;20108;-73
2022/12/10 01:44:26;;;;;;;186.05;50.80;;;;;;;-0.57;100.00;101005.72;5021522;28;20493;-74
2022/12/10 01:46:58;;;;;;;152.30;50.42;;;;;;;-0.66;100.00;101006.47;5021557;28;20388;-72
2022/12/10 01:49:26;;;;;;;149.70;50.65;;;;;;;-0.66;100.00;101012.69;5022461;28;20500;-74
2022/12/10 01:51:54;;;;;;;147.68;52.45;;;;;;;-0.60;100.00;101017.56;5018513;28;20025;-74
2022/12/10 01:54:20;;;;;;;151.60;48.35;;;;;;;-0.57;100.00;101020.84;5028373;28;20049;-73
2022/12/10 01:56:50;;;;;;;167.45;52.97;;;;;;;-0.57;100.00;101015.47;5013355;28;20056;-73
2022/12/10 01:59:15;;;;;;;141.95;50.67;;;;;;;-0.57;100.00;101017.34;5021020;28;20030;-73
2022/12/10 02:01:43;;;;;;;169.63;50.40;;;;;;;-0.61;100.00;101018.53;5019258;28;20048;-73
2022/12/10 02:04:09;;;;;;;159.23;53.75;;;;;;;-0.64;100.00;101015.25;5022597;28;20029;-73
2022/12/10 02:06:55;;;;;;;172.85;50.67;;;;;;;-0.66;100.00;101012.69;5019809;28;20068;-74
2022/12/10 02:09:38;;;;;;;149.38;47.30;;;;;;;-0.62;100.00;101015.00;5022793;28;20511;-74
2022/12/10 02:12:51;;;;;;;182.00;50.08;;;;;;;-0.60;100.00;101011.34;5022715;28;20045;-74
2022/12/10 02:15:26;;;;;;;156.63;45.40;;;;;;;-0.65;100.00;101010.84;5020226;28;20034;-74
2022/12/10 02:17:55;;;;;;;141.35;47.22;;;;;;;-0.68;100.00;101014.66;5016316;28;20508;-74
2022/12/10 02:20:36;;;;;;;137.32;45.53;;;;;;;-0.64;100.00;101016.13;5025107;28;20025;-74
2022/12/10 02:23:07;;;;;;;118.38;45.53;;;;;;;-0.64;100.00;101021.50;5022507;28;20112;-75
2022/12/10 02:25:51;;;;;;;280.15;46.85;;;;;;;-0.69;100.00;101028.22;5022326;28;20520;-74
2022/12/10 02:28:35;;;;;;;204.75;44.85;;;;;;;-0.71;100.00;101031.00;5020482;28;20033;-74
2022/12/10 02:31:03;;;;;;;198.68;44.92;;;;;;;-0.68;100.00;101028.09;5020575;28;20025;-74
2022/12/10 02:33:31;;;;;;;181.20;43.63;;;;;;;-0.72;100.00;101029.31;5019191;28;20048;-75
2022/12/10 02:35:59;;;;;;;198.43;46.15;;;;;;;-0.67;100.00;101029.78;5016650;28;20029;-74
2022/12/10 02:38:29;;;;;;;192.10;46.78;;;;;;;-0.73;100.00;101025.75;5024650;28;20026;-73
2022/12/10 02:41:05;;;;;;;187.85;47.45;;;;;;;-0.71;100.00;101025.63;5020586;28;20072;-75
2022/12/10 02:43:33;;;;;;;168.35;42.45;;;;;;;-0.69;100.00;101034.44;5017640;28;20045;-74
2022/12/10 02:46:01;;;;;;;187.50;41.83;;;;;;;-0.66;100.00;101026.13;5020241;28;20507;-74
2022/12/10 02:48:27;;;;;;;173.32;43.65;;;;;;;-0.63;100.00;101022.34;5020740;28;20026;-73
2022/12/10 02:50:52;;;;;;;207.75;45.47;;;;;;;-0.68;100.00;101025.41;5015305;28;20121;-74
2022/12/10 02:53:18;;;;;;;210.95;43.63;;;;;;;-0.67;100.00;101032.50;5019577;28;20040;-73
2022/12/10 02:56:10;;;;;;;207.85;46.95;;;;;;;-0.71;100.00;101031.00;5018810;28;20076;-73
2022/12/10 02:58:50;;;;;;;163.50;43.85;;;;;;;-0.61;100.00;101029.31;5020180;28;20535;-74
2022/12/10 03:01:32;;;;;;;126.65;40.35;;;;;;;-0.67;100.00;101027.09;5020086;28;20104;-74
2022/12/10 03:04:36;;;;;;;224.50;39.78;;;;;;;-0.75;100.00;101029.53;5017563;28;20127;-71
2022/12/10 03:07:09;;;;;;;246.55;37.50;;;;;;;-0.68;100.00;101022.72;5009637;28;20050;-74
2022/12/10 03:09:45;;;;;;;263.23;38.17;;;;;;;-0.79;100.00;101024.53;5018956;28;20029;-73
2022/12/10 03:12:25;;;;;;;212.02;37.10;;;;;;;-0.79;100.00;101021.84;5024555;28;20120;-73
2022/12/10 03:14:54;;;;;;;248.32;33.25;;;;;;;-0.78;100.00;101019.03;5017167;28;20058;-73
2022/12/10 03:17:20;;;;;;;223.93;38.03;;;;;;;-0.76;100.00;101018.94;5019453;28;20033;-73
2022/12/10 03:19:49;;;;;;;190.32;35.90;;;;;;;-0.80;100.00;101010.25;5022908;28;20480;-73
2022/12/10 03:22:17;;;;;;;232.23;35.75;;;;;;;-0.74;100.00;101009.75;5021683;28;20481;-73
2022/12/10 03:24:43;;;;;;;258.75;38.88;;;;;;;-0.76;100.00;101011.69;5012817;28;20370;-73
2022/12/10 03:27:12;;;;;;;205.88;38.15;;;;;;;-0.72;100.00;101007.78;5022975;28;20049;-74
2022/12/10 03:29:47;;;;;;;201.38;38.63;;;;;;;-0.75;100.00;101010.72;5020195;28;21957;-75
2022/12/10 03:32:15;;;;;;;254.38;39.90;;;;;;;-0.73;100.00;101010.59;5018573;28;20036;-74
2022/12/10 03:34:42;;;;;;;225.18;38.78;;;;;;;-0.73;100.00;101005.22;5016607;28;20147;-73
2022/12/10 03:37:07;;;;;;;212.10;37.45;;;;;;;-0.72;100.00;101007.78;5022033;28;20029;-71
2022/12/10 03:39:33;;;;;;;160.10;39.22;;;;;;;-0.65;100.00;101009.00;5022949;28;20045;-73
2022/12/10 03:41:59;;;;;;;172.83;38.20;;;;;;;-0.68;100.00;101002.03;5020724;28;20037;-74
2022/12/10 03:44:34;;;;;;;232.45;39.47;;;;;;;-0.67;100.00;101000.22;5014948;28;20054;-73
2022/12/10 03:47:02;;;;;;;301.17;40.10;;;;;;;-0.63;100.00;101003.50;5016521;28;20132;-72
2022/12/10 03:49:27;;;;;;;253.65;40.83;;;;;;;-0.65;100.00;101011.69;5021060;28;20037;-72
2022/12/10 03:51:53;;;;;;;192.18;42.00;;;;;;;-0.67;100.00;101010.97;5024054;28;20025;-76
2022/12/10 03:54:19;;;;;;;283.90;41.30;;;;;;;-0.68;100.00;101008.41;5013055;28;20408;-75
2022/12/10 03:56:44;;;;;;;279.08;38.28;;;;;;;-0.71;100.00;101008.66;5018820;28;20385;-73
2022/12/10 03:59:09;;;;;;;259.67;39.67;;;;;;;-0.66;100.00;101015.38;5018062;28;20040;-72
2022/12/10 04:01:35;;;;;;;147.45;36.53;;;;;;;-0.73;100.00;101011.47;5021527;28;20047;-73
2022/12/10 04:04:00;;;;;;;283.98;37.63;;;;;;;-0.69;100.00;101017.44;5018216;28;20021;-75
2022/12/10 04:06:26;;;;;;;154.80;35.53;;;;;;;-0.64;100.00;101013.44;5013144;28;20037;-74
2022/12/10 04:08:53;;;;;;;237.82;35.92;;;;;;;-0.68;100.00;101020.84;5019972;28;20027;-76
2022/12/10 04:11:18;;;;;;;145.55;34.28;;;;;;;-0.71;100.00;101011.34;5014645;28;20013;-74
2022/12/10 04:16:29;;;;;;;172.55;33.38;;;;;;;-0.80;100.00;101012.94;5022620;28;20037;-74
2022/12/10 04:19:00;;;;;;;175.27;32.75;;;;;;;-0.80;100.00;101014.75;5029445;28;20370;-73
2022/12/10 04:26:59;;;;;;;153.18;31.17;;;;;;;-0.82;100.00;101019.41;5024558;28;20099;-75
2022/12/10 04:29:30;;;;;;;202.30;31.40;;;;;;;-0.82;100.00;101020.25;5025250;28;20029;-75
2022/12/10 04:31:56;;;;;;;112.95;30.27;;;;;;;-0.87;100.00;101025.13;5024492;28;20026;-74
2022/12/10 04:34:22;;;;;;;220.18;31.55;;;;;;;-0.89;100.00;101020.84;5019659;28;20034;-73
2022/12/10 04:36:48;;;;;;;159.20;28.87;;;;;;;-0.87;100.00;101027.81;5022062;28;20021;-73
2022/12/10 04:39:14;;;;;;;164.50;25.83;;;;;;;-1.01;100.00;101028.06;5021297;28;20124;-74
2022/12/10 04:41:41;;;;;;;190.40;29.85;;;;;;;-0.97;100.00;101024.13;5024471;28;20044;-72
2022/12/10 04:44:07;;;;;;;;;;;;;;;-0.95;100.00;101029.41;5022926;28;20483;-71
2022/12/10 04:46:32;;;;;;;154.90;29.60;;;;;;;-0.90;100.00;101024.53;5025100;28;20009;-74
2022/12/10 04:48:58;;;;;;;150.90;30.42;;;;;;;-0.91;100.00;101023.66;5025284;28;20442;-75
2022/12/10 04:51:23;;;;;;;197.27;32.17;;;;;;;-0.93;100.00;101025.63;5018178;28;20113;-73
2022/12/10 04:53:49;;;;;;;159.07;30.33;;;;;;;-0.90;100.00;101021.84;5022130;28;20041;-75
2022/12/10 04:56:14;;;;;;;163.15;32.85;;;;;;;-0.91;100.00;101023.66;5024197;28;20032;-74
2022/12/10 04:58:41;;;;;;;210.82;31.60;;;;;;;-0.95;100.00;101027.59;5020378;28;20030;-74
2022/12/10 05:01:08;;;;;;;107.73;24.50;;;;;;;-0.96;100.00;101031.25;5025227;28;20068;-75
2022/12/10 05:03:34;;;;;;;167.70;31.20;;;;;;;-0.86;100.00;101026.84;5018097;28;20410;-72
2022/12/10 05:06:08;;;;;;;161.73;31.10;;;;;;;-0.91;100.00;101034.41;5020453;28;20049;-75
2022/12/10 05:08:35;;;;;;;125.00;28.98;;;;;;;-0.89;100.00;101029.78;5019690;28;20429;-75
2022/12/10 05:11:04;;;;;;;148.02;30.75;;;;;;;-0.80;100.00;101031.75;5019946;28;20026;-75
2022/12/10 05:13:29;;;;;;;152.77;31.63;;;;;;;-0.81;100.00;101032.72;5020338;28;20040;-74
2022/12/10 05:15:55;;;;;;;128.93;30.88;;;;;;;-0.75;100.00;101032.22;5021782;28;20025;-73
2022/12/10 05:18:21;;;;;;;141.07;31.23;;;;;;;-0.73;100.00;101029.41;5019484;28;20052;-74
2022/12/10 05:20:46;;;;;;;124.18;32.53;;;;;;;-0.78;100.00;101032.47;5020147;28;20131;-73
2022/12/10 05:23:29;;;;;;;117.18;31.42;;;;;;;-0.76;100.00;101027.81;5022550;28;20030;-75
2022/12/10 05:26:04;;;;;;;137.45;30.67;;;;;;;-0.80;100.00;101026.38;5024991;28;20033;-73
2022/12/10 05:28:31;;;;;;;98.32;29.35;;;;;;;-0.79;100.00;101036.16;5019941;28;20038;-72
2022/12/10 05:30:57;;;;;;;143.40;30.70;;;;;;;-0.82;100.00;101038.22;5021076;28;20068;-74
2022/12/10 05:33:22;;;;;;;132.60;28.55;;;;;;;-0.79;100.00;101025.41;5020253;28;20033;-75
2022/12/10 05:35:59;;;;;;;147.20;29.48;;;;;;;-0.78;100.00;101028.94;5022217;28;20056;-74
2022/12/10 05:38:27;;;;;;;99.80;27.50;;;;;;;-0.81;100.00;101026.50;5022110;28;20045;-74
2022/12/10 05:40:52;;;;;;;;;;;;;;;-0.80;100.00;101037.13;5021662;28;20087;-75
2022/12/10 05:43:18;;;;;;;105.85;30.10;;;;;;;-0.76;100.00;101033.22;5014695;28;19913;-76
2022/12/10 05:45:44;;;;;;;119.63;29.90;;;;;;;-0.85;100.00;101036.63;5017028;28;20548;-75
2022/12/10 05:48:12;;;;;;;135.57;30.75;;;;;;;-0.78;100.00;101032.47;5015201;28;20517;-74
2022/12/10 05:50:37;;;;;;;120.90;31.42;;;;;;;-0.81;100.00;101032.72;5018215;28;20029;-75
2022/12/10 05:53:03;;;;;;;72.82;29.67;;;;;;;-0.81;100.00;101034.56;5014689;28;20084;-75
2022/12/10 05:55:31;;;;;;;103.10;32.13;;;;;;;-0.81;100.00;101032.72;5013647;28;20327;-74
2022/12/10 05:57:56;;;;;;;81.57;30.08;;;;;;;-0.74;100.00;101042.03;5021747;28;20030;-75
2022/12/10 06:00:23;;;;;;;89.00;29.83;;;;;;;-0.68;100.00;101035.28;5016442;28;20356;-74
2022/12/10 06:02:49;;;;;;;82.63;29.92;;;;;;;-0.69;100.00;101038.97;5018181;28;20379;-73
2022/12/10 06:05:15;;;;;;;94.40;32.65;;;;;;;-0.70;100.00;101038.09;5013122;28;20053;-74
2022/12/10 06:07:40;;;;;;;95.20;33.90;;;;;;;-0.69;100.00;101039.84;5014294;28;20026;-73
2022/12/10 06:10:06;;;;;;;85.53;33.60;;;;;;;-0.70;100.00;101048.00;5019078;28;20377;-72
2022/12/10 06:12:32;;;;;;;94.57;35.75;;;;;;;-0.70;100.00;101046.16;5012346;28;20030;-74
2022/12/10 06:14:57;;;;;;;103.47;35.60;;;;;;;-0.57;100.00;101043.34;5013698;28;20576;-74
2022/12/10 06:17:22;;;;;;;98.65;36.38;;;;;;;-0.69;100.00;101038.97;5012011;28;20476;-73
2022/12/10 06:19:48;;;;;;;102.00;35.17;;;;;;;-0.64;100.00;101034.06;5013787;28;20022;-72
2022/12/10 06:22:13;;;;;;;88.80;34.92;;;;;;;-0.67;100.00;101043.25;5017401;28;20041;-73
2022/12/10 06:24:38;;;;;;;84.07;32.97;;;;;;;-0.64;100.00;101043.00;5021051;28;20077;-74
2022/12/10 06:27:05;;;;;;;91.32;35.00;;;;;;;-0.73;100.00;101046.41;5020780;28;20030;-73
2022/12/10 06:29:30;;;;;;;84.43;32.43;;;;;;;-0.68;100.00;101054.13;5021902;28;20463;-72
2022/12/10 06:31:56;;;;;;;88.05;34.35;;;;;;;-0.68;100.00;101048.72;5017281;28;20283;-73
2022/12/10 06:34:21;;;;;;;95.40;33.25;;;;;;;-0.68;100.00;101041.53;5011172;28;20114;-74
2022/12/10 06:36:46;;;;;;;100.22;34.40;;;;;;;-0.64;100.00;101048.38;5013545;28;20072;-74
2022/12/10 06:39:12;;;;;;;91.05;34.45;;;;;;;-0.58;100.00;101057.78;5020224;28;20025;-74
2022/12/10 06:41:38;;;;;;;96.07;34.42;;;;;;;-0.59;100.00;101059.59;5016410;28;20473;-73
2022/12/10 06:44:07;;;;;;;87.45;33.42;;;;;;;-0.57;100.00;101066.56;5020495;28;20480;-73
2022/12/10 06:46:32;;;;;;;94.95;34.13;;;;;;;-0.55;100.00;101063.78;5019643;28;20038;-74
2022/12/10 06:48:58;;;;;;;87.25;33.17;;;;;;;-0.54;100.00;101067.34;5019264;28;20437;-73
2022/12/10 06:51:24;;;;;;;90.43;33.67;;;;;;;-0.68;100.00;101063.06;5016677;28;20124;-73
2022/12/10 06:53:49;;;;;;;87.40;33.03;;;;;;;-0.64;100.00;101056.47;5020473;28;20507;-72
2022/12/10 06:56:17;;;;;;;83.07;32.20;;;;;;;-0.69;100.00;101055.97;5022690;28;20511;-74
2022/12/10 06:58:44;;;;;;;105.38;33.50;;;;;;;-0.59;100.00;101069.53;5019276;28;20606;-73
2022/12/10 07:01:12;;;;;;;104.72;36.00;;;;;;;-0.63;100.00;101062.69;5029191;28;20057;-73
2022/12/10 07:03:38;;;;;;;103.43;35.22;;;;;;;-0.57;100.00;101060.38;5017487;28;20087;-72
2022/12/10 07:06:05;;;;;;;102.18;33.92;;;;;;;-0.60;100.00;101065.97;5018404;28;20117;-74
2022/12/10 07:08:30;;;;;;;104.32;35.55;;;;;;;-0.66;100.00;101069.16;5014146;28;20033;-74
2022/12/10 07:10:56;;;;;;;100.68;35.50;;;;;;;-0.63;100.00;101071.63;5016609;28;20038;-72
2022/12/10 07:13:21;;;;;;;118.78;35.47;;;;;;;-0.60;100.00;101089.34;5022293;28;20113;-73
2022/12/10 07:15:47;;;;;;;131.00;33.00;;;;;;;-0.70;100.00;101081.13;5021344;28;20033;-73
2022/12/10 07:18:12;;;;;;;113.53;33.42;;;;;;;-0.64;100.00;101086.03;5019835;28;20032;-74
2022/12/10 07:20:38;;;;;;;116.65;35.75;;;;;;;-0.63;100.00;101087.75;5022262;28;20061;-75
2022/12/10 07:23:03;;;;;;;118.40;33.45;;;;;;;-0.66;100.00;101093.34;5015363;28;20346;-74
2022/12/10 07:25:29;;;;;;;109.47;34.50;;;;;;;-0.69;100.00;101092.75;5016198;28;20573;-74
2022/12/10 07:27:55;;;;;;;128.93;34.38;;;;;;;-0.73;100.00;101089.44;5014791;28;20419;-73
2022/12/10 07:30:20;;;;;;;105.72;34.80;;;;;;;-0.76;100.00;101088.81;5015459;28;20160;-73
2022/12/10 07:32:46;;;;;;;117.88;34.17;;;;;;;-0.74;100.00;101098.50;5021028;28;20017;-72
2022/12/10 07:35:11;;;;;;;114.45;34.58;;;;;;;-0.61;100.00;101099.22;5013887;28;20030;-73
2022/12/10 07:37:36;;;;;;;143.63;32.60;;;;;;;-0.65;100.00;101099.59;5015607;28;21361;-72
2022/12/10 07:40:02;;;;;;;125.88;36.08;;;;;;;-0.75;100.00;101094.06;5015434;28;20025;-73
2022/12/10 07:42:28;;;;;;;125.10;36.63;;;;;;;-0.72;100.00;101099.22;5017554;28;20026;-73
2022/12/10 07:44:53;;;;;;;137.02;36.30;;;;;;;-0.70;100.00;101102.63;5020205;28;20416;-74
2022/12/10 07:47:19;;;;;;;109.05;35.78;;;;;;;-0.71;100.00;101103.59;5014350;28;20069;-74
2022/12/10 07:49:44;;;;;;;112.50;34.45;;;;;;;-0.72;100.00;101107.28;5022851;28;20037;-73
2022/12/10 07:52:10;;;;;;;157.30;35.00;;;;;;;-0.71;100.00;101100.91;5021822;28;20038;-74
2022/12/10 07:54:35;;;;;;;109.65;33.63;;;;;;;-0.68;100.00;101106.06;5027552;28;20040;-74
2022/12/10 07:57:01;;;;;;;117.63;37.60;;;;;;;-0.69;100.00;101106.19;5018730;28;20044;-73
2022/12/10 07:59:27;;;;;;;125.63;35.20;;;;;;;-0.68;100.00;101105.19;5019768;28;20073;-73
2022/12/10 08:01:52;;;;;;;115.20;36.35;;;;;;;-0.66;100.00;101105.97;5022030;28;20021;-73
2022/12/10 08:04:17;;;;;;;104.97;35.17;;;;;;;-0.70;100.00;101108.00;5019843;28;20040;-74
2022/12/10 08:06:43;;;;;;;113.15;35.10;;;;;;;-0.69;100.00;101111.56;5025340;28;20488;-73
2022/12/10 08:09:09;;;;;;;125.72;36.60;;;;;;;-0.63;100.00;101120.84;5027390;28;20064;-73
2022/12/10 08:11:35;;;;;;;128.18;34.88;;;;;;;-0.61;100.00;101118.06;5018420;28;20026;-74
2022/12/10 08:14:00;;;;;;;120.25;34.78;;;;;;;-0.68;100.00;101124.03;5018462;28;20392;-73
2022/12/10 08:16:28;;;;;;;139.55;32.97;;;;;;;-0.60;100.00;101124.31;5020283;28;20034;-74
2022/12/10 08:18:55;;;;;;;109.78;35.70;;;;;;;-0.67;100.00;101126.59;5015658;28;20033;-72
2022/12/10 08:21:24;;;;;;;129.10;33.65;;;;;;;-0.60;100.00;101125.13;5020695;28;20386;-73
2022/12/10 08:23:49;;;;;;;191.80;35.13;;;;;;;-0.84;100.00;101131.56;5020565;28;20514;-72
2022/12/10 08:26:21;;;;;;;127.15;34.30;;;;;;;-0.82;100.00;101143.09;5017440;28;20056;-72
2022/12/10 08:28:48;;;;;;;126.15;33.63;;;;;;;-0.82;100.00;101149.28;5017253;28;20037;-72
2022/12/10 08:31:17;;;;;;;168.05;36.80;;;;;;;-0.82;100.00;101148.47;5025064;28;20038;-75
2022/12/10 08:33:42;;;;;;;124.93;34.70;;;;;;;-0.77;100.00;101157.00;5027394;28;20116;-73
2022/12/10 08:36:12;;;;;;;111.55;35.40;;;;;;;-0.77;100.00;101151.63;5021018;28;20032;-73
2022/12/10 08:38:37;;;;;;;126.45;36.60;;;;;;;-0.76;100.00;101151.50;5019543;28;20424;-73
2022/12/10 08:41:12;;;;;;;127.30;34.30;;;;;;;-0.86;100.00;101150.50;5017524;28;20029;-71
2022/12/10 08:43:39;;;;;;;100.47;33.85;;;;;;;-0.71;100.00;101151.16;5018755;28;20034;-72
2022/12/10 08:46:04;;;;;;;144.95;33.38;;;;;;;-0.72;100.00;101155.69;5011045;28;20046;-72
2022/12/10 08:48:33;;;;;;;132.73;33.70;;;;;;;-0.76;100.00;101159.56;5013899;28;20093;-73
2022/12/10 08:50:58;;;;;;;150.02;34.60;;;;;;;-0.84;100.00;101155.75;5019593;28;20025;-74
2022/12/10 08:53:23;;;;;;;129.07;35.30;;;;;;;-0.82;100.00;101162.72;5017439;28;20465;-73
2022/12/10 08:55:50;;;;;;;121.07;33.95;;;;;;;-0.86;100.00;101155.88;5017109;28;20042;-71
2022/12/10 08:58:16;;;;;;;162.27;35.80;;;;;;;-0.79;100.00;101156.28;5021027;28;20061;-73
2022/12/10 09:00:41;;;;;;;116.00;35.70;;;;;;;-0.69;100.00;101163.53;5019300;28;20080;-72
2022/12/10 09:03:08;;;;;;;140.95;36.42;;;;;;;-0.71;100.00;101164.63;5015612;28;20048;-74
2022/12/10 09:05:34;;;;;;;147.38;39.08;;;;;;;-0.71;100.00;101165.47;5022341;28;20036;-73
2022/12/10 09:07:59;;;;;;;129.70;37.97;;;;;;;-0.73;100.00;101162.03;5018267;28;20037;-74
2022/12/10 09:10:24;;;;;;;140.90;37.33;;;;;;;-0.69;100.00;101166.22;5019413;28;20108;-73
2022/12/10 09:12:50;;;;;;;135.75;37.45;;;;;;;-0.79;100.00;101167.03;5017714;28;20045;-73
2022/12/10 09:15:15;;;;;;;152.45;36.33;;;;;;;-0.76;100.00;101164.13;5021751;28;20034;-73
2022/12/10 09:17:41;;;;;;;118.70;35.17;;;;;;;-0.79;100.00;101165.22;5016354;28;20493;-72
2022/12/10 09:20:06;;;;;;;119.40;36.03;;;;;;;-0.80;100.00;101158.13;5018188;28;20037;-73
2022/12/10 09:22:36;;;;;;;123.97;35.20;;;;;;;-0.79;100.00;101162.50;5019037;28;20108;-74
2022/12/10 09:25:03;;;;;;;130.05;37.97;;;;;;;-0.72;100.00;101158.38;5022141;28;20028;-73
2022/12/10 09:27:29;;;;;;;;;;;;;;;-0.73;100.00;101168.25;5019772;28;20038;-74
2022/12/10 09:29:54;;;;;;;123.00;35.00;;;;;;;-0.65;100.00;101173.03;5018623;28;19935;-74
2022/12/10 09:32:20;;;;;;;130.80;36.58;;;;;;;-0.64;100.00;101176.59;5016209;28;20025;-73
2022/12/10 09:34:45;;;;;;;142.05;37.08;;;;;;;-0.66;100.00;101178.56;5016532;28;20080;-73
2022/12/10 09:37:10;;;;;;;160.07;39.63;;;;;;;-0.73;100.00;101171.94;5018400;28;20108;-72
2022/12/10 09:39:36;;;;;;;142.38;37.17;;;;;;;-0.70;100.00;101188.66;5018736;28;20068;-73
2022/12/10 09:42:09;;;;;;;152.98;39.47;;;;;;;-0.68;100.00;101193.94;5017128;28;20030;-73
2022/12/10 09:44:53;;;;;;;132.02;36.13;;;;;;;-0.63;100.00;101195.31;5020151;28;20044;-72
2022/12/10 09:47:20;;;;;;;135.55;36.47;;;;;;;-0.63;100.00;101187.25;5020309;28;20033;-73
2022/12/10 09:49:55;;;;;;;113.28;37.05;;;;;;;-0.54;100.00;101183.81;5020160;28;20041;-71
2022/12/10 09:52:24;;;;;;;139.75;37.28;;;;;;;-0.51;100.00;101194.38;5023146;28;20018;-72
2022/12/10 09:54:58;;;;;;;152.98;37.63;;;;;;;-0.63;100.00;101176.50;5019906;28;20510;-72
2022/12/10 09:57:34;;;;;;;164.40;38.25;;;;;;;-0.58;100.00;101187.75;5027787;28;20033;-74
2022/12/10 10:00:15;;;;;;;147.10;37.33;;;;;;;-0.57;100.00;101193.97;5023725;28;20040;-71
2022/12/10 10:02:41;;;;;;;156.20;35.67;;;;;;;-0.53;100.00;101185.56;5017655;28;20508;-72
2022/12/10 10:05:06;;;;;;;166.10;39.75;;;;;;;-0.46;100.00;101187.63;5023359;28;20030;-73
2022/12/10 10:07:35;;;;;;;160.07;40.58;;;;;;;-0.45;100.00;101191.19;5020402;28;20036;-72
2022/12/10 10:10:05;;;;;;;139.75;40.45;;;;;;;-0.47;100.00;101193.16;5019845;28;20092;-73
2022/12/10 10:12:33;;;;;;;142.93;40.25;;;;;;;-0.39;100.00;101188.03;5019823;28;20032;-73
2022/12/10 10:15:10;;;;;;;165.43;38.83;;;;;;;-0.46;100.00;101187.63;5022187;28;20034;-75
2022/12/10 10:17:37;;;;;;;155.85;29.48;;;;;;;-0.42;100.00;101190.97;5015582;28;20675;-75
2022/12/10 10:20:02;;;;;;;;;;;;;;;-0.42;100.00;101197.19;5016430;28;20370;-73
2022/12/10 10:22:28;;;;;;;160.85;38.60;;;;;;;-0.39;100.00;101187.19;5031630;28;19920;-73
2022/12/10 10:24:53;;;;;;;158.73;40.28;;;;;;;-0.34;100.00;101183.13;5022223;28;20539;-74
2022/12/10 10:27:26;;;;;;;160.32;40.58;;;;;;;-0.32;100.00;101194.66;5020542;28;20354;-74
2022/12/10 10:29:54;;;;;;;156.15;41.03;;;;;;;-0.27;100.00;101198.69;5024186;28;20492;-75
2022/12/10 10:32:26;;;;;;;148.32;37.95;;;;;;;-0.26;100.00;101204.94;5018228;28;20040;-75
2022/12/10 10:34:57;;;;;;;155.27;37.72;;;;;;;-0.29;100.00;101205.16;5020957;28;20426;-73
2022/12/10 10:37:31;;;;;;;151.88;38.38;;;;;;;-0.31;100.00;101218.72;5016414;28;20032;-72
2022/12/10 10:39:57;;;;;;;153.82;40.08;;;;;;;-0.27;100.00;101214.84;5025100;28;20076;-73
2022/12/10 10:42:41;;;;;;;164.13;43.58;;;;;;;-0.22;100.00;101209.94;5017766;28;20033;-75
2022/12/10 10:45:37;;;;;;;196.82;71.03;;;;;;;-0.33;100.00;101214.44;5020911;28;20145;-75
2022/12/10 10:48:13;;;;;;;147.38;40.42;;;;;;;-0.27;100.00;101208.59;5020921;28;20041;-73
2022/12/10 10:50:47;;;;;;;174.43;39.42;;;;;;;-0.23;100.00;101211.91;5018011;28;20071;-75
2022/12/10 10:53:23;;;;;;;154.82;39.20;;;;;;;-0.24;100.00;101211.03;5015637;28;20038;-75
2022/12/10 10:55:49;;;;;;;170.38;35.97;;;;;;;-0.32;100.00;101207.25;5013198;28;20033;-75
2022/12/10 10:58:21;;;;;;;159.60;38.38;;;;;;;-0.26;100.00;101200.41;5019483;28;20059;-75
2022/12/10 11:01:02;;;;;;;172.05;41.42;;;;;;;-0.18;100.00;101205.19;5020817;28;20136;-73
2022/12/10 11:03:29;;;;;;;157.20;38.53;;;;;;;-0.23;100.00;101204.69;5014541;28;20028;-76
2022/12/10 11:05:57;;;;;;;154.60;37.72;;;;;;;-0.26;100.00;101211.16;5021621;28;20518;-75
2022/12/10 11:08:25;;;;;;;147.75;38.13;;;;;;;-0.15;100.00;101210.34;5011380;28;20022;-74
2022/12/10 11:11:04;;;;;;;158.98;38.28;;;;;;;-0.08;100.00;101203.47;5014791;28;20377;-73